sensor_id;sensor_type;location;lat;lon;timestamp;P1;durP1;ratioP1;P2;durP2;ratioP2
18340;SDS011;9296;48.084;16.352;2023-05-10T00:05:09;3.85;;;2.97;;
18340;SDS011;9296;48.084;16.352;2023-05-10T00:07:36;4.45;;;3.10;;
18340;SDS011;9296;48.084;16.352;2023-05-10T00:10:03;5.95;;;2.88;;
18340;SDS011;9296;48.084;16.352;2023-05-10T00:12:31;3.88;;;3.08;;
18340;SDS011;9296;48.084;16.352;2023-05-10T00:15:16;4.22;;;3.00;;
18340;SDS011;9296;48.084;16.352;2023-05-10T00:17:43;8.85;;;3.05;;
18340;SDS011;9296;48.084;16.352;2023-05-10T00:20:12;5.10;;;3.15;;
18340;SDS011;9296;48.084;16.352;2023-05-10T00:22:39;7.43;;;3.50;;
18340;SDS011;9296;48.084;16.352;2023-05-10T00:25:07;5.18;;;3.20;;
18340;SDS011;9296;48.084;16.352;2023-05-10T00:27:35;3.42;;;3.05;;
18340;SDS011;9296;48.084;16.352;2023-05-10T00:33:07;4.35;;;3.10;;
18340;SDS011;9296;48.084;16.352;2023-05-10T00:35:36;4.30;;;2.90;;
18340;SDS011;9296;48.084;16.352;2023-05-10T00:38:03;4.60;;;3.38;;
18340;SDS011;9296;48.084;16.352;2023-05-10T00:40:30;4.40;;;3.20;;
18340;SDS011;9296;48.084;16.352;2023-05-10T00:42:57;4.00;;;3.10;;
18340;SDS011;9296;48.084;16.352;2023-05-10T00:45:26;7.60;;;3.38;;
18340;SDS011;9296;48.084;16.352;2023-05-10T00:47:53;3.30;;;3.00;;
18340;SDS011;9296;48.084;16.352;2023-05-10T00:50:21;5.20;;;3.42;;
18340;SDS011;9296;48.084;16.352;2023-05-10T00:52:49;4.93;;;3.55;;
18340;SDS011;9296;48.084;16.352;2023-05-10T00:55:17;3.47;;;3.03;;
18340;SDS011;9296;48.084;16.352;2023-05-10T00:57:44;5.50;;;3.45;;
18340;SDS011;9296;48.084;16.352;2023-05-10T01:03:15;4.20;;;3.17;;
18340;SDS011;9296;48.084;16.352;2023-05-10T01:05:43;5.13;;;3.50;;
18340;SDS011;9296;48.084;16.352;2023-05-10T01:08:11;5.50;;;3.60;;
18340;SDS011;9296;48.084;16.352;2023-05-10T01:10:39;4.70;;;3.55;;
18340;SDS011;9296;48.084;16.352;2023-05-10T01:13:06;6.25;;;3.40;;
18340;SDS011;9296;48.084;16.352;2023-05-10T01:18:38;5.20;;;3.65;;
18340;SDS011;9296;48.084;16.352;2023-05-10T01:21:08;3.78;;;3.38;;
18340;SDS011;9296;48.084;16.352;2023-05-10T01:23:57;6.35;;;3.53;;
18340;SDS011;9296;48.084;16.352;2023-05-10T01:29:18;4.93;;;3.63;;
18340;SDS011;9296;48.084;16.352;2023-05-10T01:31:59;4.25;;;3.35;;
18340;SDS011;9296;48.084;16.352;2023-05-10T01:34:32;4.72;;;3.35;;
18340;SDS011;9296;48.084;16.352;2023-05-10T01:37:02;5.30;;;3.90;;
18340;SDS011;9296;48.084;16.352;2023-05-10T01:39:37;4.57;;;3.65;;
18340;SDS011;9296;48.084;16.352;2023-05-10T01:42:08;6.03;;;3.72;;
18340;SDS011;9296;48.084;16.352;2023-05-10T01:48:01;6.35;;;4.10;;
18340;SDS011;9296;48.084;16.352;2023-05-10T01:50:31;5.90;;;4.07;;
18340;SDS011;9296;48.084;16.352;2023-05-10T01:53:00;5.50;;;3.85;;
18340;SDS011;9296;48.084;16.352;2023-05-10T01:55:28;6.78;;;4.45;;
18340;SDS011;9296;48.084;16.352;2023-05-10T01:58:02;6.95;;;4.22;;
18340;SDS011;9296;48.084;16.352;2023-05-10T02:03:20;5.28;;;3.90;;
18340;SDS011;9296;48.084;16.352;2023-05-10T02:05:48;5.28;;;4.05;;
18340;SDS011;9296;48.084;16.352;2023-05-10T02:08:16;8.35;;;4.53;;
18340;SDS011;9296;48.084;16.352;2023-05-10T02:10:44;5.97;;;4.68;;
18340;SDS011;9296;48.084;16.352;2023-05-10T02:13:12;5.97;;;4.43;;
18340;SDS011;9296;48.084;16.352;2023-05-10T02:15:40;5.93;;;4.25;;
18340;SDS011;9296;48.084;16.352;2023-05-10T02:18:08;5.70;;;4.50;;
18340;SDS011;9296;48.084;16.352;2023-05-10T02:20:37;7.10;;;4.32;;
18340;SDS011;9296;48.084;16.352;2023-05-10T02:23:05;5.82;;;4.00;;
18340;SDS011;9296;48.084;16.352;2023-05-10T02:25:33;5.88;;;4.05;;
18340;SDS011;9296;48.084;16.352;2023-05-10T02:28:01;6.65;;;4.70;;
18340;SDS011;9296;48.084;16.352;2023-05-10T02:33:34;7.28;;;4.35;;
18340;SDS011;9296;48.084;16.352;2023-05-10T02:36:03;7.93;;;4.35;;
18340;SDS011;9296;48.084;16.352;2023-05-10T02:38:31;5.82;;;4.43;;
18340;SDS011;9296;48.084;16.352;2023-05-10T02:40:59;7.03;;;4.20;;
18340;SDS011;9296;48.084;16.352;2023-05-10T02:43:28;6.47;;;4.20;;
18340;SDS011;9296;48.084;16.352;2023-05-10T02:49:00;6.55;;;4.32;;
18340;SDS011;9296;48.084;16.352;2023-05-10T02:51:30;8.98;;;4.50;;
18340;SDS011;9296;48.084;16.352;2023-05-10T02:53:59;5.20;;;4.43;;
18340;SDS011;9296;48.084;16.352;2023-05-10T02:56:29;6.60;;;4.50;;
18340;SDS011;9296;48.084;16.352;2023-05-10T02:58:58;6.05;;;4.15;;
18340;SDS011;9296;48.084;16.352;2023-05-10T03:01:25;7.88;;;4.18;;
18340;SDS011;9296;48.084;16.352;2023-05-10T03:03:52;5.57;;;4.25;;
18340;SDS011;9296;48.084;16.352;2023-05-10T03:06:20;7.07;;;4.68;;
18340;SDS011;9296;48.084;16.352;2023-05-10T03:08:48;6.70;;;4.40;;
18340;SDS011;9296;48.084;16.352;2023-05-10T03:11:20;6.10;;;4.72;;
18340;SDS011;9296;48.084;16.352;2023-05-10T03:13:56;7.03;;;4.50;;
18340;SDS011;9296;48.084;16.352;2023-05-10T03:16:27;6.75;;;4.22;;
18340;SDS011;9296;48.084;16.352;2023-05-10T03:18:56;6.82;;;4.38;;
18340;SDS011;9296;48.084;16.352;2023-05-10T03:21:28;8.18;;;4.60;;
18340;SDS011;9296;48.084;16.352;2023-05-10T03:23:58;8.02;;;4.30;;
18340;SDS011;9296;48.084;16.352;2023-05-10T03:26:26;6.40;;;4.35;;
18340;SDS011;9296;48.084;16.352;2023-05-10T03:28:54;5.32;;;4.38;;
18340;SDS011;9296;48.084;16.352;2023-05-10T03:31:22;5.97;;;4.35;;
18340;SDS011;9296;48.084;16.352;2023-05-10T03:33:49;5.75;;;4.35;;
18340;SDS011;9296;48.084;16.352;2023-05-10T03:36:17;6.15;;;4.32;;
18340;SDS011;9296;48.084;16.352;2023-05-10T03:38:44;5.72;;;4.80;;
18340;SDS011;9296;48.084;16.352;2023-05-10T03:41:13;5.70;;;4.65;;
18340;SDS011;9296;48.084;16.352;2023-05-10T03:43:40;7.57;;;4.25;;
18340;SDS011;9296;48.084;16.352;2023-05-10T03:49:11;5.43;;;3.75;;
18340;SDS011;9296;48.084;16.352;2023-05-10T03:51:38;7.70;;;4.50;;
18340;SDS011;9296;48.084;16.352;2023-05-10T03:54:05;6.28;;;4.72;;
18340;SDS011;9296;48.084;16.352;2023-05-10T03:56:34;5.90;;;4.22;;
18340;SDS011;9296;48.084;16.352;2023-05-10T04:02:05;6.35;;;4.40;;
18340;SDS011;9296;48.084;16.352;2023-05-10T04:04:32;7.05;;;4.47;;
18340;SDS011;9296;48.084;16.352;2023-05-10T04:06:59;6.47;;;4.47;;
18340;SDS011;9296;48.084;16.352;2023-05-10T04:09:26;6.95;;;4.40;;
18340;SDS011;9296;48.084;16.352;2023-05-10T04:11:55;5.75;;;4.63;;
18340;SDS011;9296;48.084;16.352;2023-05-10T04:17:25;6.93;;;4.38;;
18340;SDS011;9296;48.084;16.352;2023-05-10T04:19:53;6.82;;;4.22;;
18340;SDS011;9296;48.084;16.352;2023-05-10T04:22:20;5.10;;;3.83;;
18340;SDS011;9296;48.084;16.352;2023-05-10T04:24:47;6.93;;;4.63;;
18340;SDS011;9296;48.084;16.352;2023-05-10T04:27:16;5.63;;;4.22;;
18340;SDS011;9296;48.084;16.352;2023-05-10T04:30:01;6.68;;;4.60;;
18340;SDS011;9296;48.084;16.352;2023-05-10T04:32:29;7.75;;;4.40;;
18340;SDS011;9296;48.084;16.352;2023-05-10T04:34:56;7.07;;;4.95;;
18340;SDS011;9296;48.084;16.352;2023-05-10T04:37:23;5.80;;;4.55;;
18340;SDS011;9296;48.084;16.352;2023-05-10T04:39:50;5.90;;;4.45;;
18340;SDS011;9296;48.084;16.352;2023-05-10T04:42:19;5.63;;;4.30;;
18340;SDS011;9296;48.084;16.352;2023-05-10T04:47:34;5.32;;;4.00;;
18340;SDS011;9296;48.084;16.352;2023-05-10T04:50:02;5.60;;;4.60;;
18340;SDS011;9296;48.084;16.352;2023-05-10T04:52:29;6.25;;;4.43;;
18340;SDS011;9296;48.084;16.352;2023-05-10T04:54:56;5.28;;;4.15;;
18340;SDS011;9296;48.084;16.352;2023-05-10T04:57:25;7.43;;;4.32;;
18340;SDS011;9296;48.084;16.352;2023-05-10T04:59:52;6.10;;;4.40;;
18340;SDS011;9296;48.084;16.352;2023-05-10T05:02:19;6.97;;;4.50;;
18340;SDS011;9296;48.084;16.352;2023-05-10T05:04:46;5.70;;;4.32;;
18340;SDS011;9296;48.084;16.352;2023-05-10T05:07:13;5.78;;;4.28;;
18340;SDS011;9296;48.084;16.352;2023-05-10T05:09:41;5.50;;;4.53;;
18340;SDS011;9296;48.084;16.352;2023-05-10T05:12:08;7.88;;;4.15;;
18340;SDS011;9296;48.084;16.352;2023-05-10T05:14:40;5.35;;;4.20;;
18340;SDS011;9296;48.084;16.352;2023-05-10T05:17:07;7.43;;;4.45;;
18340;SDS011;9296;48.084;16.352;2023-05-10T05:19:34;5.28;;;4.65;;
18340;SDS011;9296;48.084;16.352;2023-05-10T05:22:01;5.70;;;4.25;;
18340;SDS011;9296;48.084;16.352;2023-05-10T05:24:29;4.55;;;4.13;;
18340;SDS011;9296;48.084;16.352;2023-05-10T05:26:56;9.10;;;4.90;;
18340;SDS011;9296;48.084;16.352;2023-05-10T05:35:31;5.22;;;4.40;;
18340;SDS011;9296;48.084;16.352;2023-05-10T05:37:59;6.13;;;4.32;;
18340;SDS011;9296;48.084;16.352;2023-05-10T05:40:26;6.05;;;4.32;;
18340;SDS011;9296;48.084;16.352;2023-05-10T05:42:53;8.85;;;4.65;;
18340;SDS011;9296;48.084;16.352;2023-05-10T05:45:20;6.80;;;4.50;;
18340;SDS011;9296;48.084;16.352;2023-05-10T05:47:47;6.38;;;4.20;;
18340;SDS011;9296;48.084;16.352;2023-05-10T05:50:15;8.38;;;4.30;;
18340;SDS011;9296;48.084;16.352;2023-05-10T05:52:43;5.03;;;4.13;;
18340;SDS011;9296;48.084;16.352;2023-05-10T05:55:10;4.93;;;3.90;;
18340;SDS011;9296;48.084;16.352;2023-05-10T05:57:38;5.20;;;3.80;;
18340;SDS011;9296;48.084;16.352;2023-05-10T06:00:06;4.80;;;3.60;;
18340;SDS011;9296;48.084;16.352;2023-05-10T06:02:33;5.72;;;4.15;;
18340;SDS011;9296;48.084;16.352;2023-05-10T06:05:00;4.82;;;3.50;;
18340;SDS011;9296;48.084;16.352;2023-05-10T06:07:27;4.65;;;4.00;;
18340;SDS011;9296;48.084;16.352;2023-05-10T06:09:56;4.45;;;3.65;;
18340;SDS011;9296;48.084;16.352;2023-05-10T06:12:23;5.32;;;3.58;;
18340;SDS011;9296;48.084;16.352;2023-05-10T06:17:54;10.00;;;4.45;;
18340;SDS011;9296;48.084;16.352;2023-05-10T06:20:21;4.68;;;3.78;;
18340;SDS011;9296;48.084;16.352;2023-05-10T06:22:48;5.80;;;3.78;;
18340;SDS011;9296;48.084;16.352;2023-05-10T06:25:17;5.05;;;3.70;;
18340;SDS011;9296;48.084;16.352;2023-05-10T06:27:44;6.03;;;4.22;;
18340;SDS011;9296;48.084;16.352;2023-05-10T06:36:07;4.43;;;3.88;;
18340;SDS011;9296;48.084;16.352;2023-05-10T06:38:34;5.07;;;4.05;;
18340;SDS011;9296;48.084;16.352;2023-05-10T06:41:02;5.93;;;4.32;;
18340;SDS011;9296;48.084;16.352;2023-05-10T06:43:30;6.70;;;3.92;;
18340;SDS011;9296;48.084;16.352;2023-05-10T06:52:04;5.95;;;3.83;;
18340;SDS011;9296;48.084;16.352;2023-05-10T06:54:32;6.70;;;4.10;;
18340;SDS011;9296;48.084;16.352;2023-05-10T06:57:00;4.13;;;3.60;;
18340;SDS011;9296;48.084;16.352;2023-05-10T07:02:04;6.38;;;4.28;;
18340;SDS011;9296;48.084;16.352;2023-05-10T07:04:42;5.88;;;4.10;;
18340;SDS011;9296;48.084;16.352;2023-05-10T07:07:37;6.97;;;4.22;;
18340;SDS011;9296;48.084;16.352;2023-05-10T07:10:09;3.90;;;3.47;;
18340;SDS011;9296;48.084;16.352;2023-05-10T07:12:50;11.98;;;3.97;;
18340;SDS011;9296;48.084;16.352;2023-05-10T07:30:55;4.95;;;4.00;;
18340;SDS011;9296;48.084;16.352;2023-05-10T07:33:22;4.45;;;4.05;;
18340;SDS011;9296;48.084;16.352;2023-05-10T07:35:49;7.72;;;4.18;;
18340;SDS011;9296;48.084;16.352;2023-05-10T07:38:17;5.75;;;4.50;;
18340;SDS011;9296;48.084;16.352;2023-05-10T07:40:44;6.35;;;4.43;;
18340;SDS011;9296;48.084;16.352;2023-05-10T07:43:11;5.53;;;3.80;;
18340;SDS011;9296;48.084;16.352;2023-05-10T07:45:58;5.65;;;4.13;;
18340;SDS011;9296;48.084;16.352;2023-05-10T07:48:28;5.15;;;3.83;;
18340;SDS011;9296;48.084;16.352;2023-05-10T07:50:56;4.60;;;4.13;;
18340;SDS011;9296;48.084;16.352;2023-05-10T07:53:23;5.75;;;3.90;;
18340;SDS011;9296;48.084;16.352;2023-05-10T07:55:58;5.18;;;4.40;;
18340;SDS011;9296;48.084;16.352;2023-05-10T07:58:25;4.93;;;4.00;;
18340;SDS011;9296;48.084;16.352;2023-05-10T08:07:01;5.93;;;4.93;;
18340;SDS011;9296;48.084;16.352;2023-05-10T08:09:28;5.85;;;4.35;;
18340;SDS011;9296;48.084;16.352;2023-05-10T08:11:56;5.90;;;4.80;;
18340;SDS011;9296;48.084;16.352;2023-05-10T08:14:29;5.82;;;3.88;;
18340;SDS011;9296;48.084;16.352;2023-05-10T08:20:00;5.30;;;4.43;;
18340;SDS011;9296;48.084;16.352;2023-05-10T08:22:28;6.13;;;3.90;;
18340;SDS011;9296;48.084;16.352;2023-05-10T08:24:56;5.13;;;3.90;;
18340;SDS011;9296;48.084;16.352;2023-05-10T08:27:23;5.35;;;3.90;;
18340;SDS011;9296;48.084;16.352;2023-05-10T08:29:50;5.35;;;3.83;;
18340;SDS011;9296;48.084;16.352;2023-05-10T08:32:18;4.80;;;3.40;;
18340;SDS011;9296;48.084;16.352;2023-05-10T08:34:45;5.05;;;3.25;;
18340;SDS011;9296;48.084;16.352;2023-05-10T08:37:12;5.07;;;3.78;;
18340;SDS011;9296;48.084;16.352;2023-05-10T08:39:41;5.30;;;4.25;;
18340;SDS011;9296;48.084;16.352;2023-05-10T08:55:06;5.05;;;3.67;;
18340;SDS011;9296;48.084;16.352;2023-05-10T08:57:35;4.68;;;3.58;;
18340;SDS011;9296;48.084;16.352;2023-05-10T09:02:49;5.80;;;3.92;;
18340;SDS011;9296;48.084;16.352;2023-05-10T09:05:16;4.50;;;3.75;;
18340;SDS011;9296;48.084;16.352;2023-05-10T09:07:44;7.03;;;3.45;;
18340;SDS011;9296;48.084;16.352;2023-05-10T09:10:13;6.45;;;3.47;;
18340;SDS011;9296;48.084;16.352;2023-05-10T09:12:40;6.57;;;3.15;;
18340;SDS011;9296;48.084;16.352;2023-05-10T09:15:09;5.38;;;3.17;;
18340;SDS011;9296;48.084;16.352;2023-05-10T09:17:37;3.28;;;2.97;;
18340;SDS011;9296;48.084;16.352;2023-05-10T09:20:05;4.93;;;3.30;;
18340;SDS011;9296;48.084;16.352;2023-05-10T09:22:33;3.90;;;3.28;;
18340;SDS011;9296;48.084;16.352;2023-05-10T09:25:04;3.85;;;2.60;;
18340;SDS011;9296;48.084;16.352;2023-05-10T09:27:33;3.63;;;2.67;;
18340;SDS011;9296;48.084;16.352;2023-05-10T09:33:04;2.30;;;2.05;;
18340;SDS011;9296;48.084;16.352;2023-05-10T09:35:32;6.93;;;2.20;;
18340;SDS011;9296;48.084;16.352;2023-05-10T09:38:00;3.72;;;2.10;;
18340;SDS011;9296;48.084;16.352;2023-05-10T09:40:28;2.22;;;1.80;;
18340;SDS011;9296;48.084;16.352;2023-05-10T09:42:57;2.42;;;1.70;;
18340;SDS011;9296;48.084;16.352;2023-05-10T09:45:26;1.90;;;1.73;;
18340;SDS011;9296;48.084;16.352;2023-05-10T09:47:53;2.25;;;1.90;;
18340;SDS011;9296;48.084;16.352;2023-05-10T09:50:21;1.80;;;1.70;;
18340;SDS011;9296;48.084;16.352;2023-05-10T09:52:49;4.13;;;1.92;;
18340;SDS011;9296;48.084;16.352;2023-05-10T09:55:17;3.70;;;1.70;;
18340;SDS011;9296;48.084;16.352;2023-05-10T09:57:45;3.00;;;1.45;;
18340;SDS011;9296;48.084;16.352;2023-05-10T10:00:17;1.63;;;1.52;;
18340;SDS011;9296;48.084;16.352;2023-05-10T10:02:46;3.83;;;1.85;;
18340;SDS011;9296;48.084;16.352;2023-05-10T10:05:13;3.15;;;1.90;;
18340;SDS011;9296;48.084;16.352;2023-05-10T10:07:41;2.70;;;1.67;;
18340;SDS011;9296;48.084;16.352;2023-05-10T10:10:09;2.60;;;1.65;;
18340;SDS011;9296;48.084;16.352;2023-05-10T10:12:38;4.90;;;1.50;;
18340;SDS011;9296;48.084;16.352;2023-05-10T10:15:05;2.63;;;1.80;;
18340;SDS011;9296;48.084;16.352;2023-05-10T10:17:51;2.03;;;1.90;;
18340;SDS011;9296;48.084;16.352;2023-05-10T10:20:19;2.45;;;1.80;;
18340;SDS011;9296;48.084;16.352;2023-05-10T10:22:47;3.35;;;1.92;;
18340;SDS011;9296;48.084;16.352;2023-05-10T10:25:15;3.17;;;1.90;;
18340;SDS011;9296;48.084;16.352;2023-05-10T10:27:45;3.33;;;1.63;;
18340;SDS011;9296;48.084;16.352;2023-05-10T10:36:24;2.83;;;1.80;;
18340;SDS011;9296;48.084;16.352;2023-05-10T10:38:56;2.10;;;1.70;;
18340;SDS011;9296;48.084;16.352;2023-05-10T10:41:29;3.47;;;1.60;;
18340;SDS011;9296;48.084;16.352;2023-05-10T10:49:24;2.35;;;1.75;;
18340;SDS011;9296;48.084;16.352;2023-05-10T10:54:38;2.80;;;1.83;;
18340;SDS011;9296;48.084;16.352;2023-05-10T10:57:10;2.13;;;1.63;;
18340;SDS011;9296;48.084;16.352;2023-05-10T10:59:41;8.55;;;2.78;;
18340;SDS011;9296;48.084;16.352;2023-05-10T11:02:09;2.25;;;1.92;;
18340;SDS011;9296;48.084;16.352;2023-05-10T11:04:42;2.35;;;1.77;;
18340;SDS011;9296;48.084;16.352;2023-05-10T11:07:17;2.47;;;1.73;;
18340;SDS011;9296;48.084;16.352;2023-05-10T11:09:47;2.80;;;1.90;;
18340;SDS011;9296;48.084;16.352;2023-05-10T11:12:15;3.13;;;1.80;;
18340;SDS011;9296;48.084;16.352;2023-05-10T11:14:42;2.42;;;1.95;;
18340;SDS011;9296;48.084;16.352;2023-05-10T11:20:13;3.22;;;2.05;;
18340;SDS011;9296;48.084;16.352;2023-05-10T11:22:50;4.05;;;1.60;;
18340;SDS011;9296;48.084;16.352;2023-05-10T11:25:19;3.28;;;1.55;;
18340;SDS011;9296;48.084;16.352;2023-05-10T11:27:47;2.30;;;1.40;;
18340;SDS011;9296;48.084;16.352;2023-05-10T11:30:15;1.58;;;1.30;;
18340;SDS011;9296;48.084;16.352;2023-05-10T11:32:59;1.52;;;1.30;;
18340;SDS011;9296;48.084;16.352;2023-05-10T11:35:27;2.83;;;1.42;;
18340;SDS011;9296;48.084;16.352;2023-05-10T11:37:54;2.08;;;1.48;;
18340;SDS011;9296;48.084;16.352;2023-05-10T11:40:23;2.10;;;1.20;;
18340;SDS011;9296;48.084;16.352;2023-05-10T11:42:51;2.38;;;1.40;;
18340;SDS011;9296;48.084;16.352;2023-05-10T11:45:18;3.50;;;1.42;;
18340;SDS011;9296;48.084;16.352;2023-05-10T11:47:48;1.92;;;1.30;;
18340;SDS011;9296;48.084;16.352;2023-05-10T11:50:15;1.50;;;1.40;;
18340;SDS011;9296;48.084;16.352;2023-05-10T11:52:44;1.80;;;1.60;;
18340;SDS011;9296;48.084;16.352;2023-05-10T11:55:11;2.30;;;1.50;;
18340;SDS011;9296;48.084;16.352;2023-05-10T11:57:40;3.45;;;1.40;;
18340;SDS011;9296;48.084;16.352;2023-05-10T12:00:10;1.67;;;1.58;;
18340;SDS011;9296;48.084;16.352;2023-05-10T12:05:41;2.45;;;1.48;;
18340;SDS011;9296;48.084;16.352;2023-05-10T12:08:12;2.35;;;1.40;;
18340;SDS011;9296;48.084;16.352;2023-05-10T12:10:39;2.45;;;1.40;;
18340;SDS011;9296;48.084;16.352;2023-05-10T12:13:11;2.78;;;1.50;;
18340;SDS011;9296;48.084;16.352;2023-05-10T12:15:40;1.50;;;1.40;;
18340;SDS011;9296;48.084;16.352;2023-05-10T12:18:08;2.03;;;1.40;;
18340;SDS011;9296;48.084;16.352;2023-05-10T12:20:36;2.65;;;1.30;;
18340;SDS011;9296;48.084;16.352;2023-05-10T12:23:03;2.15;;;1.63;;
18340;SDS011;9296;48.084;16.352;2023-05-10T12:25:32;1.80;;;1.30;;
18340;SDS011;9296;48.084;16.352;2023-05-10T12:28:00;1.70;;;1.33;;
18340;SDS011;9296;48.084;16.352;2023-05-10T12:36:38;1.75;;;1.50;;
18340;SDS011;9296;48.084;16.352;2023-05-10T12:39:05;2.67;;;1.65;;
18340;SDS011;9296;48.084;16.352;2023-05-10T12:41:32;4.68;;;1.50;;
18340;SDS011;9296;48.084;16.352;2023-05-10T12:43:59;1.65;;;1.55;;
18340;SDS011;9296;48.084;16.352;2023-05-10T12:52:23;3.05;;;1.45;;
18340;SDS011;9296;48.084;16.352;2023-05-10T12:54:51;3.08;;;1.85;;
18340;SDS011;9296;48.084;16.352;2023-05-10T12:57:18;5.82;;;1.80;;
18340;SDS011;9296;48.084;16.352;2023-05-10T12:59:45;2.67;;;1.45;;
18340;SDS011;9296;48.084;16.352;2023-05-10T13:05:16;2.35;;;1.60;;
18340;SDS011;9296;48.084;16.352;2023-05-10T13:07:45;2.13;;;1.75;;
18340;SDS011;9296;48.084;16.352;2023-05-10T13:10:12;2.20;;;1.80;;
18340;SDS011;9296;48.084;16.352;2023-05-10T13:12:39;2.63;;;2.20;;
18340;SDS011;9296;48.084;16.352;2023-05-10T13:15:07;3.60;;;1.85;;
18340;SDS011;9296;48.084;16.352;2023-05-10T13:20:38;1.85;;;1.75;;
18340;SDS011;9296;48.084;16.352;2023-05-10T13:23:07;2.03;;;1.83;;
18340;SDS011;9296;48.084;16.352;2023-05-10T13:25:34;2.25;;;2.05;;
18340;SDS011;9296;48.084;16.352;2023-05-10T13:28:02;2.45;;;1.98;;
18340;SDS011;9296;48.084;16.352;2023-05-10T13:30:29;2.70;;;2.08;;
18340;SDS011;9296;48.084;16.352;2023-05-10T13:36:00;2.75;;;2.15;;
18340;SDS011;9296;48.084;16.352;2023-05-10T13:38:28;4.75;;;2.15;;
18340;SDS011;9296;48.084;16.352;2023-05-10T13:40:56;5.05;;;2.10;;
18340;SDS011;9296;48.084;16.352;2023-05-10T13:43:23;3.72;;;2.30;;
18340;SDS011;9296;48.084;16.352;2023-05-10T13:45:50;7.13;;;2.28;;
18340;SDS011;9296;48.084;16.352;2023-05-10T13:48:17;2.88;;;2.20;;
18340;SDS011;9296;48.084;16.352;2023-05-10T13:50:45;2.22;;;1.80;;
18340;SDS011;9296;48.084;16.352;2023-05-10T13:53:12;2.85;;;2.17;;
18340;SDS011;9296;48.084;16.352;2023-05-10T13:55:41;2.25;;;2.08;;
18340;SDS011;9296;48.084;16.352;2023-05-10T13:58:08;3.47;;;2.20;;
18340;SDS011;9296;48.084;16.352;2023-05-10T14:00:35;2.13;;;1.92;;
18340;SDS011;9296;48.084;16.352;2023-05-10T14:06:06;3.05;;;2.00;;
18340;SDS011;9296;48.084;16.352;2023-05-10T14:08:33;2.97;;;1.85;;
18340;SDS011;9296;48.084;16.352;2023-05-10T14:11:02;2.42;;;1.73;;
18340;SDS011;9296;48.084;16.352;2023-05-10T14:13:30;2.33;;;2.00;;
18340;SDS011;9296;48.084;16.352;2023-05-10T14:15:57;2.67;;;1.88;;
18340;SDS011;9296;48.084;16.352;2023-05-10T14:18:25;2.72;;;1.77;;
18340;SDS011;9296;48.084;16.352;2023-05-10T14:20:53;4.45;;;2.10;;
18340;SDS011;9296;48.084;16.352;2023-05-10T14:23:21;2.03;;;1.90;;
18340;SDS011;9296;48.084;16.352;2023-05-10T14:25:50;3.08;;;1.90;;
18340;SDS011;9296;48.084;16.352;2023-05-10T14:28:18;2.15;;;1.67;;
18340;SDS011;9296;48.084;16.352;2023-05-10T14:30:46;1.98;;;1.88;;
18340;SDS011;9296;48.084;16.352;2023-05-10T14:33:13;3.40;;;1.80;;
18340;SDS011;9296;48.084;16.352;2023-05-10T14:35:40;1.85;;;1.75;;
18340;SDS011;9296;48.084;16.352;2023-05-10T14:38:07;3.30;;;1.65;;
18340;SDS011;9296;48.084;16.352;2023-05-10T14:40:35;2.25;;;1.60;;
18340;SDS011;9296;48.084;16.352;2023-05-10T14:43:03;3.28;;;1.83;;
18340;SDS011;9296;48.084;16.352;2023-05-10T14:45:31;1.77;;;1.67;;
18340;SDS011;9296;48.084;16.352;2023-05-10T14:48:17;2.38;;;1.75;;
18340;SDS011;9296;48.084;16.352;2023-05-10T14:50:45;2.50;;;1.90;;
18340;SDS011;9296;48.084;16.352;2023-05-10T14:53:12;2.22;;;1.70;;
18340;SDS011;9296;48.084;16.352;2023-05-10T14:55:39;2.35;;;1.90;;
18340;SDS011;9296;48.084;16.352;2023-05-10T14:58:06;2.67;;;1.70;;
18340;SDS011;9296;48.084;16.352;2023-05-10T15:00:35;2.17;;;1.65;;
18340;SDS011;9296;48.084;16.352;2023-05-10T15:03:02;3.42;;;2.20;;
18340;SDS011;9296;48.084;16.352;2023-05-10T15:05:30;3.55;;;2.00;;
18340;SDS011;9296;48.084;16.352;2023-05-10T15:07:57;2.15;;;1.60;;
18340;SDS011;9296;48.084;16.352;2023-05-10T15:10:24;1.95;;;1.60;;
18340;SDS011;9296;48.084;16.352;2023-05-10T15:12:51;2.78;;;1.50;;
18340;SDS011;9296;48.084;16.352;2023-05-10T15:15:18;1.50;;;1.40;;
18340;SDS011;9296;48.084;16.352;2023-05-10T15:17:47;3.92;;;1.80;;
18340;SDS011;9296;48.084;16.352;2023-05-10T15:20:14;2.85;;;1.60;;
18340;SDS011;9296;48.084;16.352;2023-05-10T15:22:42;1.50;;;1.40;;
18340;SDS011;9296;48.084;16.352;2023-05-10T15:25:09;2.53;;;1.70;;
18340;SDS011;9296;48.084;16.352;2023-05-10T15:27:36;4.05;;;1.48;;
18340;SDS011;9296;48.084;16.352;2023-05-10T15:30:05;4.05;;;1.70;;
18340;SDS011;9296;48.084;16.352;2023-05-10T15:35:37;3.40;;;1.70;;
18340;SDS011;9296;48.084;16.352;2023-05-10T15:43:11;2.70;;;1.75;;
18340;SDS011;9296;48.084;16.352;2023-05-10T15:45:39;1.95;;;1.60;;
18340;SDS011;9296;48.084;16.352;2023-05-10T15:50:57;4.38;;;1.48;;
18340;SDS011;9296;48.084;16.352;2023-05-10T15:53:24;3.17;;;1.40;;
18340;SDS011;9296;48.084;16.352;2023-05-10T15:55:58;2.25;;;1.50;;
18340;SDS011;9296;48.084;16.352;2023-05-10T15:58:25;3.75;;;1.40;;
18340;SDS011;9296;48.084;16.352;2023-05-10T16:00:52;1.92;;;1.77;;
18340;SDS011;9296;48.084;16.352;2023-05-10T16:06:25;1.55;;;1.45;;
18340;SDS011;9296;48.084;16.352;2023-05-10T16:08:52;2.15;;;1.50;;
18340;SDS011;9296;48.084;16.352;2023-05-10T16:11:19;2.88;;;1.50;;
18340;SDS011;9296;48.084;16.352;2023-05-10T16:13:47;4.00;;;1.70;;
18340;SDS011;9296;48.084;16.352;2023-05-10T16:16:14;1.92;;;1.58;;
18340;SDS011;9296;48.084;16.352;2023-05-10T16:18:41;2.15;;;1.60;;
18340;SDS011;9296;48.084;16.352;2023-05-10T16:21:08;5.55;;;1.80;;
18340;SDS011;9296;48.084;16.352;2023-05-10T16:23:37;1.65;;;1.50;;
18340;SDS011;9296;48.084;16.352;2023-05-10T16:26:04;2.75;;;1.83;;
18340;SDS011;9296;48.084;16.352;2023-05-10T16:28:31;3.15;;;2.10;;
18340;SDS011;9296;48.084;16.352;2023-05-10T16:30:59;2.47;;;1.77;;
18340;SDS011;9296;48.084;16.352;2023-05-10T16:36:30;1.98;;;1.80;;
18340;SDS011;9296;48.084;16.352;2023-05-10T16:38:58;4.40;;;1.80;;
18340;SDS011;9296;48.084;16.352;2023-05-10T16:41:25;2.05;;;1.70;;
18340;SDS011;9296;48.084;16.352;2023-05-10T16:43:53;3.08;;;1.85;;
18340;SDS011;9296;48.084;16.352;2023-05-10T16:49:25;2.70;;;1.80;;
18340;SDS011;9296;48.084;16.352;2023-05-10T16:51:52;3.05;;;1.90;;
18340;SDS011;9296;48.084;16.352;2023-05-10T16:54:21;4.38;;;1.88;;
18340;SDS011;9296;48.084;16.352;2023-05-10T16:56:48;3.22;;;1.80;;
18340;SDS011;9296;48.084;16.352;2023-05-10T16:59:15;6.47;;;1.80;;
18340;SDS011;9296;48.084;16.352;2023-05-10T17:04:28;5.25;;;1.95;;
18340;SDS011;9296;48.084;16.352;2023-05-10T17:06:57;3.38;;;1.73;;
18340;SDS011;9296;48.084;16.352;2023-05-10T17:09:26;2.47;;;1.90;;
18340;SDS011;9296;48.084;16.352;2023-05-10T17:11:53;2.45;;;1.95;;
18340;SDS011;9296;48.084;16.352;2023-05-10T17:14:21;5.38;;;2.20;;
18340;SDS011;9296;48.084;16.352;2023-05-10T17:16:48;2.63;;;2.00;;
18340;SDS011;9296;48.084;16.352;2023-05-10T17:19:16;1.83;;;1.73;;
18340;SDS011;9296;48.084;16.352;2023-05-10T17:21:43;2.08;;;1.88;;
18340;SDS011;9296;48.084;16.352;2023-05-10T17:24:11;5.32;;;1.88;;
18340;SDS011;9296;48.084;16.352;2023-05-10T17:26:42;2.08;;;1.88;;
18340;SDS011;9296;48.084;16.352;2023-05-10T17:29:09;2.10;;;1.90;;
18340;SDS011;9296;48.084;16.352;2023-05-10T17:37:45;2.85;;;1.80;;
18340;SDS011;9296;48.084;16.352;2023-05-10T17:40:12;7.65;;;2.13;;
18340;SDS011;9296;48.084;16.352;2023-05-10T17:42:41;2.47;;;2.28;;
18340;SDS011;9296;48.084;16.352;2023-05-10T17:45:08;4.78;;;1.90;;
18340;SDS011;9296;48.084;16.352;2023-05-10T17:50:40;3.80;;;2.10;;
18340;SDS011;9296;48.084;16.352;2023-05-10T17:53:08;2.45;;;1.88;;
18340;SDS011;9296;48.084;16.352;2023-05-10T17:55:38;4.22;;;2.38;;
18340;SDS011;9296;48.084;16.352;2023-05-10T17:58:07;4.55;;;2.17;;
18340;SDS011;9296;48.084;16.352;2023-05-10T18:00:35;4.50;;;3.42;;